createdAt,value
2019-05-03T00:00:45.366Z,37.40
2019-05-03T00:01:45.289Z,36.90
2019-05-03T00:02:45.284Z,38.70
2019-05-03T00:03:45.284Z,36.20
2019-05-03T00:04:45.314Z,37.70
2019-05-03T00:05:45.281Z,38.50
2019-05-03T00:06:45.283Z,37.90
2019-05-03T00:07:45.277Z,36.40
2019-05-03T00:08:45.277Z,37.00
2019-05-03T00:09:45.300Z,36.50
2019-05-03T00:10:45.273Z,38.40
2019-05-03T00:11:45.274Z,37.70
2019-05-03T00:12:45.267Z,39.10
2019-05-03T00:13:45.266Z,39.20
2019-05-03T00:14:45.311Z,36.30
2019-05-03T00:15:45.272Z,37.10
2019-05-03T00:16:45.290Z,36.80
2019-05-03T00:17:45.261Z,38.80
2019-05-03T00:18:45.258Z,35.60
2019-05-03T00:19:45.415Z,36.00
2019-05-03T00:20:45.290Z,39.90
2019-05-03T00:21:45.250Z,39.00
2019-05-03T00:22:45.255Z,37.80
2019-05-03T00:23:45.255Z,37.80
2019-05-03T00:24:45.250Z,39.70
2019-05-03T00:25:45.273Z,41.90
2019-05-03T00:26:45.247Z,42.00
2019-05-03T00:27:45.271Z,40.20
2019-05-03T00:28:45.243Z,41.80
2019-05-03T00:29:46.075Z,42.60
2019-05-03T00:30:45.240Z,41.20
2019-05-03T00:31:45.264Z,39.50
2019-05-03T00:32:45.236Z,41.40
2019-05-03T00:33:45.229Z,41.70
2019-05-03T00:34:46.574Z,42.30
2019-05-03T00:35:45.237Z,42.60
2019-05-03T00:36:45.255Z,44.60
2019-05-03T00:37:45.233Z,43.30
2019-05-03T00:38:45.224Z,43.40
2019-05-03T00:39:45.220Z,44.80
2019-05-03T00:40:45.220Z,44.20
2019-05-03T00:41:45.247Z,43.90
2019-05-03T00:42:45.214Z,43.80
2019-05-03T00:43:45.214Z,41.60
2019-05-03T00:44:45.218Z,42.40
2019-05-03T00:45:45.212Z,48.40
2019-05-03T00:46:45.234Z,45.80
2019-05-03T00:47:45.214Z,41.00
2019-05-03T00:48:45.205Z,43.50
2019-05-03T00:49:45.207Z,42.70
2019-05-03T00:50:45.206Z,43.00
2019-05-03T00:51:45.229Z,40.70
2019-05-03T00:52:45.195Z,43.90
2019-05-03T00:53:45.202Z,43.20
2019-05-03T00:54:45.206Z,42.20
2019-05-03T00:55:45.194Z,42.70
2019-05-03T00:56:45.222Z,42.40
2019-05-03T00:57:45.217Z,42.40
2019-05-03T00:58:45.183Z,40.10
2019-05-03T00:59:45.186Z,40.30
2019-05-03T01:00:45.187Z,40.60
2019-05-03T01:01:45.183Z,39.50
2019-05-03T01:02:45.206Z,39.10
2019-05-03T01:03:45.181Z,37.10
2019-05-03T01:04:45.175Z,37.60
2019-05-03T01:05:45.176Z,36.90
2019-05-03T01:06:45.171Z,36.10
2019-05-03T01:07:45.199Z,37.50
2019-05-03T01:08:45.175Z,35.20
2019-05-03T01:09:45.170Z,36.20
2019-05-03T01:10:45.164Z,35.90
2019-05-03T01:11:45.164Z,37.80
2019-05-03T01:12:45.189Z,40.50
2019-05-03T01:13:45.160Z,39.10
2019-05-03T01:14:45.160Z,41.30
2019-05-03T01:15:45.156Z,40.00
2019-05-03T01:16:45.559Z,42.50
2019-05-03T01:17:45.179Z,36.60
2019-05-03T01:18:45.158Z,40.80
2019-05-03T01:19:45.148Z,40.10
2019-05-03T01:20:45.153Z,39.40
2019-05-03T01:21:45.153Z,37.40
2019-05-03T01:22:45.171Z,41.70
2019-05-03T01:23:45.141Z,40.50
2019-05-03T01:24:45.141Z,43.40
2019-05-03T01:25:45.141Z,39.00
2019-05-03T01:26:45.135Z,40.70
2019-05-03T01:27:45.165Z,43.70
2019-05-03T01:28:45.131Z,40.80
2019-05-03T01:29:45.130Z,41.70
2019-05-03T01:30:45.132Z,43.40
2019-05-03T01:31:45.129Z,40.90
2019-05-03T01:32:45.154Z,41.80
2019-05-03T01:33:45.152Z,42.70
2019-05-03T01:34:45.121Z,44.70
2019-05-03T01:35:45.121Z,43.40
2019-05-03T01:36:45.101Z,41.60
2019-05-03T01:37:45.127Z,41.00
2019-05-03T01:38:45.142Z,42.80
2019-05-03T01:39:45.111Z,36.70
2019-05-03T01:40:45.112Z,38.70
2019-05-03T01:41:45.105Z,34.30
2019-05-03T01:42:45.110Z,32.50
2019-05-03T01:43:45.134Z,34.70
2019-05-03T01:44:45.102Z,33.60
2019-05-03T01:45:45.103Z,36.80
2019-05-03T01:46:45.102Z,38.10
2019-05-03T01:47:45.095Z,33.10
2019-05-03T01:48:45.125Z,35.60
2019-05-03T01:49:45.097Z,31.90
2019-05-03T01:50:45.099Z,33.60
2019-05-03T01:51:45.092Z,36.00
2019-05-03T01:52:45.093Z,34.90
2019-05-03T01:53:45.107Z,34.50
2019-05-03T01:54:45.119Z,29.80
2019-05-03T01:55:46.518Z,33.30
2019-05-03T01:56:55.940Z,36.00
2019-05-03T01:57:45.080Z,33.80
2019-05-03T01:58:45.084Z,36.10
2019-05-03T01:59:45.097Z,29.10
2019-05-03T02:00:45.072Z,30.60
2019-05-03T02:01:45.072Z,34.80
2019-05-03T02:02:45.064Z,34.20
2019-05-03T02:03:45.108Z,32.40
2019-05-03T02:04:45.065Z,35.00
2019-05-03T02:05:45.064Z,35.20
2019-05-03T02:06:45.061Z,33.80
2019-05-03T02:07:45.069Z,33.50
2019-05-03T02:08:45.100Z,32.60
2019-05-03T02:09:45.082Z,34.40
2019-05-03T02:10:45.053Z,32.50
2019-05-03T02:11:45.065Z,35.70
2019-05-03T02:12:45.049Z,33.30
2019-05-03T02:13:45.054Z,34.30
2019-05-03T02:14:45.073Z,35.10
2019-05-03T02:15:45.043Z,34.40
2019-05-03T02:16:45.042Z,32.20
2019-05-03T02:17:45.188Z,36.10
2019-05-03T02:18:45.070Z,33.70
2019-05-03T02:19:45.039Z,32.80
2019-05-03T02:20:46.962Z,34.60
2019-05-03T02:21:45.031Z,34.30
2019-05-03T02:22:45.036Z,32.40
2019-05-03T02:23:45.059Z,34.80
2019-05-03T02:24:45.027Z,34.80
2019-05-03T02:25:55.642Z,35.10
2019-05-03T02:26:45.026Z,34.10
2019-05-03T02:27:45.019Z,32.70
2019-05-03T02:28:45.051Z,33.10
2019-05-03T02:29:45.015Z,34.00
2019-05-03T02:30:45.017Z,31.80
2019-05-03T02:31:45.019Z,32.50
2019-05-03T02:32:45.020Z,35.50
2019-05-03T02:33:45.040Z,31.60
2019-05-03T02:34:45.014Z,35.40
2019-05-03T02:35:45.004Z,32.20
2019-05-03T02:36:45.003Z,32.50
2019-05-03T02:37:45.009Z,32.40
2019-05-03T02:38:45.024Z,31.90
2019-05-03T02:39:44.997Z,35.00
2019-05-03T02:40:44.997Z,35.10
2019-05-03T02:41:48.363Z,36.30
2019-05-03T02:42:46.418Z,36.80
2019-05-03T02:43:45.390Z,35.50
2019-05-03T02:44:46.137Z,35.90
2019-05-03T02:45:45.648Z,37.30
2019-05-03T02:46:45.407Z,36.90
2019-05-03T02:47:47.186Z,36.70
2019-05-03T02:48:45.721Z,36.40
2019-05-03T02:49:45.583Z,38.10
2019-05-03T02:50:45.363Z,34.50
2019-05-03T02:51:46.059Z,35.80
2019-05-03T02:52:45.733Z,36.40
2019-05-03T02:53:45.718Z,33.40
2019-05-03T02:54:46.487Z,31.50
2019-05-03T02:55:45.528Z,30.60
2019-05-03T02:56:46.019Z,36.50
2019-05-03T02:57:46.648Z,33.30
2019-05-03T02:58:46.061Z,28.80
2019-05-03T02:59:45.290Z,31.70
2019-05-03T03:00:45.510Z,27.70
2019-05-03T03:01:46.523Z,25.80
2019-05-03T03:02:45.724Z,27.40
2019-05-03T03:03:45.705Z,30.50
2019-05-03T03:04:45.406Z,32.00
2019-05-03T03:05:46.409Z,35.00
2019-05-03T03:06:45.421Z,36.50
2019-05-03T03:07:45.943Z,33.80
2019-05-03T03:08:45.578Z,37.60
2019-05-03T03:09:45.328Z,35.10
2019-05-03T03:10:45.540Z,37.40
2019-05-03T03:11:45.782Z,38.50
2019-05-03T03:12:46.518Z,39.10
2019-05-03T03:13:45.709Z,40.10
2019-05-03T03:14:45.539Z,44.60
2019-05-03T03:15:45.818Z,46.90
2019-05-03T03:16:45.546Z,41.40
2019-05-03T03:17:45.727Z,43.70
2019-05-03T03:18:45.618Z,41.80
2019-05-03T03:19:46.188Z,38.10
2019-05-03T03:20:45.028Z,40.20
2019-05-03T03:21:46.662Z,39.00
2019-05-03T03:22:45.537Z,32.70
2019-05-03T03:23:46.059Z,37.90
2019-05-03T03:24:45.776Z,36.70
2019-05-03T03:25:46.228Z,32.30
2019-05-03T03:26:47.280Z,34.80
2019-05-03T03:27:45.290Z,35.50
2019-05-03T03:28:46.234Z,38.40
2019-05-03T03:29:45.846Z,34.60
2019-05-03T03:30:48.629Z,34.00
2019-05-03T03:31:48.395Z,37.60
2019-05-03T03:32:48.212Z,35.40
2019-05-03T03:33:47.492Z,32.10
2019-05-03T03:34:54.538Z,25.90
2019-05-03T03:35:48.824Z,20.00
2019-05-03T03:36:58.909Z,13.70
2019-05-03T03:37:46.229Z,20.40
2019-05-03T03:38:45.852Z,17.30
2019-05-03T03:39:45.802Z,22.30
2019-05-03T03:40:45.364Z,25.60
2019-05-03T03:41:45.380Z,26.10
2019-05-03T03:42:45.078Z,22.30
2019-05-03T03:43:46.279Z,20.40
2019-05-03T03:44:45.351Z,20.40
2019-05-03T03:45:45.518Z,17.50
2019-05-03T03:46:45.415Z,18.40
2019-05-03T03:47:46.361Z,18.50
2019-05-03T03:48:46.080Z,17.70
2019-05-03T03:49:46.362Z,17.50
2019-05-03T03:50:45.720Z,17.00
2019-05-03T03:51:45.545Z,19.00
2019-05-03T03:52:45.280Z,19.40
2019-05-03T03:53:46.492Z,17.90
2019-05-03T03:54:45.713Z,15.10
2019-05-03T03:55:45.849Z,15.50
2019-05-03T03:56:58.474Z,15.60
2019-05-03T03:57:46.850Z,16.80
2019-05-03T03:58:46.467Z,19.40
2019-05-03T03:59:45.521Z,17.10
2019-05-03T04:00:46.408Z,16.80
2019-05-03T04:01:45.625Z,17.40
2019-05-03T04:02:45.853Z,19.70
2019-05-03T04:03:45.953Z,17.40
2019-05-03T04:04:45.120Z,17.80
2019-05-03T04:05:46.750Z,18.40
2019-05-03T04:06:46.571Z,17.60
2019-05-03T04:07:46.396Z,18.00
2019-05-03T04:08:45.398Z,19.50
2019-05-03T04:09:45.655Z,18.50
2019-05-03T04:10:46.346Z,15.40
2019-05-03T04:11:46.316Z,15.70
2019-05-03T04:12:45.460Z,16.70
2019-05-03T04:13:45.295Z,14.60
2019-05-03T04:14:45.302Z,13.30
2019-05-03T04:15:45.386Z,14.00
2019-05-03T04:16:45.479Z,15.60
2019-05-03T04:17:45.700Z,14.60
2019-05-03T04:18:45.573Z,15.40
2019-05-03T04:19:45.507Z,13.50
2019-05-03T04:20:45.834Z,16.00
2019-05-03T04:21:45.267Z,13.80
2019-05-03T04:22:45.305Z,13.90
2019-05-03T04:23:45.840Z,16.50
2019-05-03T04:24:45.956Z,15.70
2019-05-03T04:25:45.128Z,15.90
2019-05-03T04:26:45.339Z,13.10
2019-05-03T04:27:45.565Z,13.40
2019-05-03T04:28:45.338Z,15.60
2019-05-03T04:29:45.359Z,13.60
2019-05-03T04:30:45.976Z,14.50
2019-05-03T04:31:45.715Z,14.50
2019-05-03T04:32:45.491Z,13.50
2019-05-03T04:33:45.169Z,16.20
2019-05-03T04:34:45.556Z,16.00
2019-05-03T04:35:46.529Z,14.00
2019-05-03T04:36:46.221Z,12.80
2019-05-03T04:37:45.386Z,13.10
2019-05-03T04:38:45.349Z,13.90
2019-05-03T04:39:45.645Z,13.20
2019-05-03T04:40:45.402Z,14.90
2019-05-03T04:41:45.299Z,12.90
2019-05-03T04:42:46.444Z,14.30
2019-05-03T04:43:46.015Z,14.50
2019-05-03T04:44:45.701Z,13.20
2019-05-03T04:45:45.599Z,13.80
2019-05-03T04:46:46.508Z,12.30
2019-05-03T04:47:46.386Z,14.20
2019-05-03T04:48:44.999Z,13.20
2019-05-03T04:49:46.200Z,12.40
2019-05-03T04:50:45.665Z,13.90
2019-05-03T04:51:46.553Z,14.30
2019-05-03T04:52:46.273Z,15.00
2019-05-03T04:53:45.484Z,14.20
2019-05-03T04:54:45.273Z,16.50
2019-05-03T04:55:46.842Z,15.50
2019-05-03T04:56:46.407Z,15.80
2019-05-03T04:57:46.832Z,17.20
2019-05-03T04:58:45.862Z,14.60
2019-05-03T04:59:45.197Z,14.60
2019-05-03T05:00:46.456Z,16.40
2019-05-03T05:01:46.104Z,14.20
2019-05-03T05:02:45.722Z,14.90
2019-05-03T05:03:45.694Z,13.80
2019-05-03T05:04:46.273Z,15.60
2019-05-03T05:05:45.350Z,12.80
2019-05-03T05:06:45.137Z,11.60
2019-05-03T05:07:45.651Z,11.10
2019-05-03T05:08:46.047Z,14.40
2019-05-03T05:09:45.623Z,12.90
2019-05-03T05:10:45.521Z,12.70
2019-05-03T05:11:45.790Z,12.90
2019-05-03T05:12:45.754Z,11.40
2019-05-03T05:13:45.767Z,13.90
2019-05-03T05:14:45.675Z,11.10
2019-05-03T05:15:45.980Z,11.90
2019-05-03T05:16:46.554Z,11.90
2019-05-03T05:17:45.875Z,11.30
2019-05-03T05:18:45.673Z,10.90
2019-05-03T05:19:44.654Z,10.00
2019-05-03T05:20:45.377Z,9.80
2019-05-03T05:21:44.848Z,11.20
2019-05-03T05:22:45.433Z,13.00
2019-05-03T05:23:44.587Z,12.20
2019-05-03T05:24:45.004Z,10.20
2019-05-03T05:25:44.656Z,11.30
2019-05-03T05:26:44.698Z,11.40
2019-05-03T05:27:49.520Z,11.20
2019-05-03T05:28:44.830Z,9.70
2019-05-03T05:29:45.049Z,10.70
2019-05-03T05:30:44.581Z,10.70
2019-05-03T05:31:44.700Z,9.10
2019-05-03T05:32:45.374Z,8.30
2019-05-03T05:33:44.717Z,7.90
2019-05-03T05:34:46.043Z,7.80
2019-05-03T05:35:44.562Z,6.40
2019-05-03T05:36:45.105Z,6.40
2019-05-03T05:37:44.585Z,6.20
2019-05-03T05:38:45.076Z,5.50
2019-05-03T05:39:44.805Z,5.30
2019-05-03T05:40:45.112Z,5.50
2019-05-03T05:41:45.051Z,6.00
2019-05-03T05:42:45.396Z,7.40
2019-05-03T05:43:44.736Z,6.20
2019-05-03T05:44:45.383Z,6.00
2019-05-03T05:45:45.015Z,6.40
2019-05-03T05:46:45.417Z,6.40
2019-05-03T05:47:44.903Z,6.80
2019-05-03T05:48:45.202Z,6.70
2019-05-03T05:49:44.553Z,5.60
2019-05-03T05:50:44.983Z,6.70
2019-05-03T05:51:44.625Z,5.50
2019-05-03T05:52:44.903Z,6.10
2019-05-03T05:53:44.809Z,5.30
2019-05-03T05:54:45.560Z,7.40
2019-05-03T05:55:44.802Z,5.80
2019-05-03T05:56:44.627Z,8.80
2019-05-03T05:57:44.948Z,7.50
2019-05-03T05:58:45.029Z,7.80
2019-05-03T05:59:45.359Z,6.20
2019-05-03T06:00:44.850Z,7.40
2019-05-03T06:01:45.604Z,9.80
2019-05-03T06:02:44.769Z,8.50
2019-05-03T06:03:44.910Z,6.40
2019-05-03T06:04:45.226Z,6.80
2019-05-03T06:05:44.713Z,6.00
2019-05-03T06:06:45.159Z,8.10
2019-05-03T06:07:44.491Z,5.80
2019-05-03T06:08:44.730Z,8.30
2019-05-03T06:09:44.817Z,7.30
2019-05-03T06:10:45.108Z,8.10
2019-05-03T06:11:45.047Z,6.30
2019-05-03T06:12:45.444Z,6.60
2019-05-03T06:13:44.540Z,6.50
2019-05-03T06:14:45.308Z,7.00
2019-05-03T06:15:44.763Z,6.20
2019-05-03T06:16:45.194Z,9.30
2019-05-03T06:17:45.095Z,6.70
2019-05-03T06:18:45.206Z,8.00
2019-05-03T06:19:44.907Z,5.90
2019-05-03T06:20:45.157Z,7.20
2019-05-03T06:21:44.819Z,6.50
2019-05-03T06:22:44.833Z,6.70
2019-05-03T06:23:45.122Z,5.30
2019-05-03T06:24:45.238Z,7.90
2019-05-03T06:25:45.381Z,5.40
2019-05-03T06:26:44.450Z,6.10
2019-05-03T06:27:44.942Z,6.70
2019-05-03T06:28:45.387Z,6.80
2019-05-03T06:29:45.396Z,7.50
2019-05-03T06:30:45.433Z,5.70
2019-05-03T06:31:44.689Z,4.30
2019-05-03T06:32:44.877Z,6.10
2019-05-03T06:33:45.042Z,5.40
2019-05-03T06:34:45.515Z,4.80
2019-05-03T06:35:44.591Z,5.20
2019-05-03T06:36:44.434Z,5.70
2019-05-03T06:37:45.895Z,5.80
2019-05-03T06:38:44.789Z,6.80
2019-05-03T06:39:45.435Z,5.20
2019-05-03T06:40:44.792Z,4.90
2019-05-03T06:41:44.639Z,4.90
2019-05-03T06:42:52.469Z,4.20
2019-05-03T06:43:48.395Z,5.00
2019-05-03T06:44:45.549Z,5.30
2019-05-03T06:45:49.103Z,3.70
2019-05-03T06:46:45.698Z,5.20
2019-05-03T06:47:48.082Z,5.00
2019-05-03T06:48:44.469Z,3.10
2019-05-03T06:49:48.294Z,5.40
2019-05-03T06:50:45.414Z,5.40
2019-05-03T06:51:45.790Z,3.70
2019-05-03T06:52:44.632Z,5.70
2019-05-03T06:53:47.571Z,3.50
2019-05-03T06:54:44.991Z,5.40
2019-05-03T06:55:48.236Z,4.80
2019-05-03T06:56:45.271Z,4.00
2019-05-03T06:57:45.598Z,4.50
2019-05-03T06:58:44.871Z,4.10
2019-05-03T06:59:45.186Z,5.80
2019-05-03T07:00:45.193Z,6.60
2019-05-03T07:01:44.819Z,4.10
2019-05-03T07:02:44.744Z,4.50
2019-05-03T07:03:44.849Z,4.40
2019-05-03T07:04:44.986Z,4.80
2019-05-03T07:05:44.510Z,6.70
2019-05-03T07:06:45.088Z,4.90
2019-05-03T07:07:44.475Z,3.60
2019-05-03T07:08:46.936Z,5.70
2019-05-03T07:09:44.532Z,5.50
2019-05-03T07:10:44.560Z,6.10
2019-05-03T07:11:45.119Z,4.40
2019-05-03T07:12:45.474Z,5.80
2019-05-03T07:13:44.977Z,5.80
2019-05-03T07:14:45.129Z,5.40
2019-05-03T07:15:45.466Z,5.00
2019-05-03T07:16:44.458Z,4.40
2019-05-03T07:17:45.085Z,4.50
2019-05-03T07:18:45.464Z,6.20
2019-05-03T07:19:45.891Z,5.60
2019-05-03T07:20:44.634Z,4.40
2019-05-03T07:21:44.705Z,5.30
2019-05-03T07:22:44.508Z,3.90
2019-05-03T07:23:45.085Z,5.00
2019-05-03T07:24:45.516Z,6.80
2019-05-03T07:25:44.767Z,7.70
2019-05-03T07:26:44.817Z,6.20
2019-05-03T07:27:45.263Z,5.20
2019-05-03T07:28:47.815Z,6.50
2019-05-03T07:29:44.634Z,7.30
2019-05-03T07:30:45.377Z,5.70
2019-05-03T07:31:44.742Z,6.80
2019-05-03T07:32:44.853Z,6.80
2019-05-03T07:33:44.698Z,5.20
2019-05-03T07:34:45.292Z,8.00
2019-05-03T07:35:44.517Z,7.90
2019-05-03T07:36:44.701Z,6.20
2019-05-03T07:37:45.080Z,5.20
2019-05-03T07:38:45.387Z,6.00
2019-05-03T07:39:45.303Z,6.80
2019-05-03T07:40:44.611Z,8.10
2019-05-03T07:41:44.736Z,6.90
2019-05-03T07:42:44.891Z,5.80
2019-05-03T07:43:45.071Z,6.90
2019-05-03T07:44:44.959Z,8.50
2019-05-03T07:45:44.641Z,8.50
2019-05-03T07:46:45.147Z,7.50
2019-05-03T07:47:45.230Z,6.60
2019-05-03T07:48:45.652Z,6.60
2019-05-03T07:49:44.808Z,6.50
2019-05-03T07:50:44.708Z,7.70
2019-05-03T07:51:44.849Z,5.70
2019-05-03T07:52:45.129Z,6.50
2019-05-03T07:53:45.095Z,7.40
2019-05-03T07:54:45.189Z,7.20
2019-05-03T07:55:45.690Z,5.70
2019-05-03T07:56:44.647Z,6.30
2019-05-03T07:57:45.272Z,7.00
2019-05-03T07:58:48.889Z,9.60
2019-05-03T07:59:45.521Z,7.80
2019-05-03T08:00:44.702Z,5.10
2019-05-03T08:01:45.568Z,6.00
2019-05-03T08:02:44.710Z,8.10
2019-05-03T08:03:45.100Z,6.30
2019-05-03T08:04:44.488Z,8.90
2019-05-03T08:05:45.453Z,7.70
2019-05-03T08:06:44.573Z,4.80
2019-05-03T08:07:46.180Z,6.20
2019-05-03T08:08:45.462Z,6.80
2019-05-03T08:09:45.296Z,5.60
2019-05-03T08:10:45.017Z,5.80
2019-05-03T08:11:44.452Z,7.80
2019-05-03T08:12:45.182Z,7.40
2019-05-03T08:13:44.632Z,5.20
2019-05-03T08:14:44.652Z,7.50
2019-05-03T08:15:45.256Z,5.80
2019-05-03T08:16:45.614Z,8.00
2019-05-03T08:17:44.996Z,6.40
2019-05-03T08:18:45.733Z,5.30
2019-05-03T08:19:44.733Z,7.30
2019-05-03T08:20:45.106Z,6.50
2019-05-03T08:21:45.276Z,5.80
2019-05-03T08:22:44.791Z,6.50
2019-05-03T08:23:45.321Z,6.20
2019-05-03T08:24:44.858Z,6.40
2019-05-03T08:25:44.610Z,5.80
2019-05-03T08:26:45.341Z,5.90
2019-05-03T08:27:44.623Z,7.60
2019-05-03T08:28:44.521Z,6.00
2019-05-03T08:29:45.352Z,5.90
2019-05-03T08:30:44.500Z,5.50
2019-05-03T08:31:45.454Z,6.50
2019-05-03T08:32:44.534Z,4.40
2019-05-03T08:33:44.808Z,7.10
2019-05-03T08:34:45.281Z,4.80
2019-05-03T08:35:44.825Z,6.20
2019-05-03T08:36:45.195Z,6.70
2019-05-03T08:37:45.283Z,8.00
2019-05-03T08:38:45.242Z,7.10
2019-05-03T08:39:44.788Z,4.70
2019-05-03T08:40:45.512Z,7.40
2019-05-03T08:41:44.377Z,4.70
2019-05-03T08:42:44.482Z,5.60
2019-05-03T08:43:44.631Z,5.00
2019-05-03T08:44:45.326Z,6.90
2019-05-03T08:45:44.756Z,4.50
2019-05-03T08:46:47.206Z,4.70
2019-05-03T08:47:45.067Z,4.90
2019-05-03T08:48:45.631Z,5.70
2019-05-03T08:49:45.027Z,6.30
2019-05-03T08:50:45.117Z,6.70
2019-05-03T08:51:44.414Z,5.00
2019-05-03T08:52:45.170Z,5.20
2019-05-03T08:53:45.901Z,4.60
2019-05-03T08:54:44.868Z,6.20
2019-05-03T08:55:44.973Z,5.90
2019-05-03T08:56:45.120Z,5.90
2019-05-03T08:57:44.770Z,6.00
2019-05-03T08:58:45.075Z,4.20
2019-05-03T08:59:44.594Z,6.80
2019-05-03T09:00:45.519Z,5.50
2019-05-03T09:01:45.437Z,5.20
2019-05-03T09:02:44.751Z,4.80
2019-05-03T09:03:45.764Z,5.80
2019-05-03T09:04:45.887Z,4.40
2019-05-03T09:05:45.789Z,5.30
2019-05-03T09:06:44.653Z,4.20
2019-05-03T09:07:44.720Z,2.80
2019-05-03T09:08:45.833Z,3.40
2019-05-03T09:09:45.989Z,4.20
2019-05-03T09:10:45.995Z,2.30
2019-05-03T09:11:45.382Z,5.40
2019-05-03T09:12:44.916Z,3.50
2019-05-03T09:13:44.991Z,4.60
2019-05-03T09:14:46.364Z,3.30
2019-05-03T09:15:44.607Z,2.40
2019-05-03T09:16:44.739Z,4.60
2019-05-03T09:17:44.597Z,2.60
2019-05-03T09:18:45.413Z,4.40
2019-05-03T09:19:45.334Z,3.40
2019-05-03T09:20:44.845Z,3.30
2019-05-03T09:21:45.366Z,3.50
2019-05-03T09:22:45.356Z,4.50
2019-05-03T09:23:44.988Z,4.40
2019-05-03T09:24:45.534Z,2.60
2019-05-03T09:25:45.823Z,2.60
2019-05-03T09:26:44.929Z,3.80
2019-05-03T09:27:44.690Z,6.40
2019-05-03T09:28:45.459Z,3.70
2019-05-03T09:29:46.068Z,5.10
2019-05-03T09:30:44.734Z,2.60
2019-05-03T09:31:44.669Z,3.80
2019-05-03T09:32:44.818Z,4.10
2019-05-03T09:33:45.180Z,3.00
2019-05-03T09:34:44.493Z,4.10
2019-05-03T09:35:45.753Z,2.70
2019-05-03T09:36:44.878Z,2.40
2019-05-03T09:37:44.915Z,4.50
2019-05-03T09:38:45.838Z,4.00
2019-05-03T09:39:44.519Z,3.00
2019-05-03T09:40:45.360Z,3.20
2019-05-03T09:41:45.041Z,3.10
2019-05-03T09:42:44.502Z,4.00
2019-05-03T09:43:45.009Z,4.40
2019-05-03T09:44:45.073Z,4.80
2019-05-03T09:45:45.735Z,4.60
2019-05-03T09:46:44.647Z,4.40
2019-05-03T09:47:44.856Z,4.20
2019-05-03T09:48:45.349Z,5.50
2019-05-03T09:49:45.354Z,2.90
2019-05-03T09:50:45.153Z,5.40
2019-05-03T09:51:44.461Z,4.60
2019-05-03T09:52:46.836Z,2.50
2019-05-03T09:53:44.670Z,2.50
2019-05-03T09:54:45.309Z,2.00
2019-05-03T09:55:44.855Z,2.90
2019-05-03T09:56:48.071Z,3.90
2019-05-03T09:57:44.486Z,5.90
2019-05-03T09:58:45.988Z,3.40
2019-05-03T09:59:56.433Z,3.60
2019-05-03T10:00:44.580Z,2.80
2019-05-03T10:01:45.654Z,4.00
2019-05-03T10:02:44.992Z,3.50
2019-05-03T10:03:45.207Z,3.70
2019-05-03T10:04:44.614Z,3.80
2019-05-03T10:05:45.805Z,3.30
2019-05-03T10:06:45.303Z,3.00
2019-05-03T10:07:45.587Z,5.50
2019-05-03T10:08:45.445Z,3.70
2019-05-03T10:09:45.062Z,2.90
2019-05-03T10:10:44.041Z,4.40
2019-05-03T10:11:45.953Z,2.60
2019-05-03T10:12:44.422Z,3.80
2019-05-03T10:13:48.327Z,3.20
2019-05-03T10:14:45.191Z,4.60
2019-05-03T10:15:45.080Z,3.10
2019-05-03T10:16:44.911Z,5.20
2019-05-03T10:17:45.799Z,2.70
2019-05-03T10:18:45.954Z,3.70
2019-05-03T10:19:45.166Z,2.60
2019-05-03T10:20:44.634Z,3.10
2019-05-03T10:21:44.905Z,3.10
2019-05-03T10:22:44.111Z,5.50
2019-05-03T10:23:45.256Z,2.80
2019-05-03T10:24:45.243Z,3.00
2019-05-03T10:25:45.513Z,3.30
2019-05-03T10:26:45.555Z,3.80
2019-05-03T10:27:45.734Z,4.60
2019-05-03T10:28:44.155Z,3.50
2019-05-03T10:29:44.767Z,3.50
2019-05-03T10:30:45.078Z,4.20
2019-05-03T10:31:44.955Z,4.10
2019-05-03T10:32:44.939Z,3.20
2019-05-03T10:33:45.020Z,2.60
2019-05-03T10:34:44.118Z,3.10
2019-05-03T10:35:45.144Z,3.90
2019-05-03T10:36:44.175Z,3.30
2019-05-03T10:37:45.323Z,4.10
2019-05-03T10:38:46.047Z,3.80
2019-05-03T10:39:45.519Z,4.30
2019-05-03T10:40:45.228Z,3.30
2019-05-03T10:41:45.317Z,4.20
2019-05-03T10:42:44.555Z,3.70
2019-05-03T10:43:45.171Z,4.70
2019-05-03T10:44:44.915Z,2.40
2019-05-03T10:45:45.024Z,3.50
2019-05-03T10:46:45.218Z,3.10
2019-05-03T10:47:45.667Z,3.40
2019-05-03T10:48:45.065Z,2.90
2019-05-03T10:49:45.741Z,4.60
2019-05-03T10:50:44.154Z,3.80
2019-05-03T10:51:45.218Z,3.90
2019-05-03T10:52:44.619Z,2.90
2019-05-03T10:53:45.459Z,3.40
2019-05-03T10:54:45.883Z,4.00
2019-05-03T10:55:45.068Z,2.70
2019-05-03T10:56:45.244Z,4.00
2019-05-03T10:57:44.920Z,2.10
2019-05-03T10:58:45.305Z,4.00
2019-05-03T10:59:44.809Z,2.80
2019-05-03T11:00:50.221Z,3.00
2019-05-03T11:01:45.217Z,4.20
2019-05-03T11:02:45.305Z,3.80
2019-05-03T11:03:45.178Z,4.30
2019-05-03T11:04:46.144Z,2.30
2019-05-03T11:05:45.417Z,4.80
2019-05-03T11:06:45.798Z,3.40
2019-05-03T11:07:45.166Z,3.10
2019-05-03T11:08:45.128Z,5.50
2019-05-03T11:09:49.642Z,2.90
2019-05-03T11:10:44.156Z,3.50
2019-05-03T11:11:45.288Z,3.60
2019-05-03T11:12:44.153Z,5.30
2019-05-03T11:13:44.171Z,3.80
2019-05-03T11:14:45.540Z,4.40
2019-05-03T11:15:44.455Z,5.10
2019-05-03T11:16:45.970Z,3.20
2019-05-03T11:17:45.512Z,3.30
2019-05-03T11:18:45.574Z,3.90
2019-05-03T11:19:45.475Z,5.30
2019-05-03T11:20:45.259Z,2.70
2019-05-03T11:21:45.495Z,3.90
2019-05-03T11:22:45.263Z,3.60
2019-05-03T11:23:45.063Z,7.10
2019-05-03T11:24:45.446Z,3.70
2019-05-03T11:25:45.192Z,3.30
2019-05-03T11:26:45.443Z,3.30
2019-05-03T11:27:44.709Z,4.80
2019-05-03T11:28:44.888Z,4.10
2019-05-03T11:29:45.017Z,3.50
2019-05-03T11:30:53.130Z,3.90
2019-05-03T11:31:44.580Z,4.50
2019-05-03T11:32:44.742Z,3.60
2019-05-03T11:33:45.688Z,5.40
2019-05-03T11:34:44.929Z,4.70
2019-05-03T11:35:44.655Z,4.80
2019-05-03T11:36:45.460Z,4.10
2019-05-03T11:37:45.436Z,4.40
2019-05-03T11:38:45.582Z,4.40
2019-05-03T11:39:45.174Z,4.30
2019-05-03T11:40:45.506Z,3.90
2019-05-03T11:41:45.104Z,3.00
2019-05-03T11:42:44.785Z,3.10
2019-05-03T11:43:44.430Z,4.80
2019-05-03T11:44:44.680Z,4.40
2019-05-03T11:45:44.893Z,3.20
2019-05-03T11:46:44.546Z,4.50
2019-05-03T11:47:45.780Z,4.80
2019-05-03T11:48:45.495Z,7.50
2019-05-03T11:49:45.376Z,4.00
2019-05-03T11:50:45.340Z,4.30
2019-05-03T11:51:44.649Z,4.70
2019-05-03T11:52:46.777Z,4.70
2019-05-03T11:53:45.044Z,4.90
2019-05-03T11:54:45.270Z,4.70
2019-05-03T11:55:46.373Z,3.30
2019-05-03T11:56:44.954Z,4.10
2019-05-03T11:57:44.978Z,2.90
2019-05-03T11:58:45.679Z,2.40
2019-05-03T11:59:45.297Z,4.00
2019-05-03T12:00:45.110Z,3.50
2019-05-03T12:01:44.942Z,3.90
2019-05-03T12:02:44.834Z,4.00
2019-05-03T12:03:45.130Z,5.40
2019-05-03T12:04:45.858Z,3.30
2019-05-03T12:05:44.184Z,4.00
2019-05-03T12:06:45.600Z,2.50
2019-05-03T12:07:45.547Z,4.40
2019-05-03T12:08:44.770Z,5.20
2019-05-03T12:09:45.200Z,2.80
2019-05-03T12:10:52.369Z,2.90
2019-05-03T12:11:44.168Z,3.20
2019-05-03T12:12:44.656Z,1.90
2019-05-03T12:13:45.647Z,3.40
2019-05-03T12:14:45.329Z,3.20
2019-05-03T12:15:44.597Z,4.00
2019-05-03T12:17:52.029Z,2.10
2019-05-03T12:18:50.308Z,2.90
2019-05-03T12:19:47.466Z,4.90
2019-05-03T12:20:46.517Z,2.70
2019-05-03T12:21:44.825Z,4.30
2019-05-03T12:22:46.673Z,4.10
2019-05-03T12:23:45.956Z,4.00
2019-05-03T12:24:45.757Z,2.90
2019-05-03T12:25:45.939Z,5.10
2019-05-03T12:26:46.783Z,3.50
2019-05-03T12:27:44.554Z,3.10
2019-05-03T12:28:44.771Z,3.90
2019-05-03T12:29:44.707Z,4.70
2019-05-03T12:30:44.939Z,2.60
2019-05-03T12:31:45.568Z,4.30
2019-05-03T12:32:44.210Z,3.80
2019-05-03T12:33:45.984Z,3.10
2019-05-03T12:34:44.195Z,5.40
2019-05-03T12:35:46.252Z,4.80
2019-05-03T12:36:45.136Z,4.70
2019-05-03T12:37:44.195Z,4.90
2019-05-03T12:38:44.248Z,4.40
2019-05-03T12:39:44.226Z,5.50
2019-05-03T12:40:45.579Z,4.10
2019-05-03T12:41:48.016Z,4.00
2019-05-03T12:42:45.438Z,2.60
2019-05-03T12:43:44.206Z,4.70
2019-05-03T12:44:46.052Z,3.60
2019-05-03T12:45:44.234Z,6.40
2019-05-03T12:46:45.006Z,4.00
2019-05-03T12:47:45.304Z,4.40
2019-05-03T12:48:44.842Z,3.80
2019-05-03T12:49:45.151Z,3.30
2019-05-03T12:50:46.365Z,4.60
2019-05-03T12:51:45.282Z,3.50
2019-05-03T12:52:50.441Z,5.10
2019-05-03T12:53:44.217Z,3.00
2019-05-03T12:54:45.135Z,4.50
2019-05-03T12:55:44.264Z,4.40
2019-05-03T12:56:45.393Z,3.70
2019-05-03T12:57:45.785Z,4.60
2019-05-03T12:58:45.698Z,5.10
2019-05-03T12:59:45.064Z,3.70
2019-05-03T13:00:46.714Z,4.40
2019-05-03T13:01:45.308Z,3.80
2019-05-03T13:02:44.660Z,2.90
2019-05-03T13:03:44.636Z,3.90
2019-05-03T13:04:44.686Z,3.40
2019-05-03T13:05:45.152Z,5.20
2019-05-03T13:06:45.355Z,4.60
2019-05-03T13:07:45.554Z,4.20
2019-05-03T13:08:45.611Z,4.70